Time;durP1;ratioP1;P1;durP2;ratioP2;P2;SDS_P1;SDS_P2;PMS_P1;PMS_P2;Temp;Humidity;BMP_temperature;BMP_pressure;BME280_temperature;BME280_humidity;BME280_pressure;Samples;Min_cycle;Max_cycle;Signal;HPM_P1;HPM_P2
2023/08/10 00:01:04;;;;;;;7.50;3.20;;;;;;;17.71;100.00;101984.28;5243383;28;20032;-74
2023/08/10 00:03:35;;;;;;;5.57;2.80;;;;;;;17.24;100.00;101990.25;5257607;28;20044;-73
2023/08/10 00:06:07;;;;;;;9.57;2.83;;;;;;;17.42;100.00;101996.00;5242416;28;20048;-73
2023/08/10 00:08:38;;;;;;;8.40;2.23;;;;;;;17.62;100.00;101988.47;5237361;28;20033;-74
2023/08/10 00:11:09;;;;;;;11.07;3.10;;;;;;;17.61;100.00;102000.84;5236869;28;20105;-74
2023/08/10 00:13:41;;;;;;;11.07;3.67;;;;;;;17.61;100.00;101992.91;5236611;28;20424;-72
2023/08/10 00:16:12;;;;;;;4.20;2.30;;;;;;;17.64;100.00;101990.06;5235043;28;20025;-74
2023/08/10 00:18:44;;;;;;;5.77;2.33;;;;;;;17.73;100.00;101988.50;5254364;28;20468;-74
2023/08/10 00:21:15;;;;;;;12.47;3.10;;;;;;;17.60;100.00;101991.22;5256966;28;20300;-74
2023/08/10 00:23:46;;;;;;;4.27;2.33;;;;;;;17.15;100.00;101995.22;5257587;28;20025;-74
2023/08/10 00:26:18;;;;;;;6.83;2.80;;;;;;;17.33;100.00;101994.88;5255781;28;20083;-73
2023/08/10 00:28:50;;;;;;;5.07;2.40;;;;;;;17.33;100.00;101997.50;5238804;28;20054;-74
2023/08/10 00:31:21;;;;;;;8.67;3.20;;;;;;;17.38;100.00;102003.34;5235570;28;20029;-74
2023/08/10 00:33:53;;;;;;;8.27;2.80;;;;;;;17.57;100.00;101999.38;5236552;28;20120;-74
2023/08/10 00:36:24;;;;;;;10.43;3.03;;;;;;;17.23;100.00;102002.63;5235191;28;20030;-74
2023/08/10 00:38:56;;;;;;;8.47;3.07;;;;;;;17.60;100.00;102009.75;5236150;28;20041;-72
2023/08/10 00:41:28;;;;;;;11.63;3.13;;;;;;;17.34;100.00;102004.50;5234286;28;20029;-74
2023/08/10 00:43:59;;;;;;;7.73;2.73;;;;;;;17.44;100.00;102001.22;5246191;28;20033;-74
2023/08/10 00:46:31;;;;;;;6.87;3.03;;;;;;;17.08;100.00;101988.63;5234920;28;20029;-73
2023/08/10 00:49:04;;;;;;;6.43;3.00;;;;;;;17.07;100.00;101991.38;5235941;28;20057;-75
2023/08/10 00:51:35;;;;;;;7.27;3.10;;;;;;;16.99;100.00;101994.56;5235821;28;20137;-74
2023/08/10 00:54:07;;;;;;;5.33;2.93;;;;;;;17.09;100.00;101990.31;5235791;28;20109;-75
2023/08/10 00:56:38;;;;;;;7.93;3.03;;;;;;;17.21;100.00;101988.63;5236361;28;20091;-73
2023/08/10 00:59:10;;;;;;;7.80;3.07;;;;;;;17.33;100.00;101981.63;5235836;28;20022;-74
2023/08/10 01:01:42;;;;;;;8.67;2.87;;;;;;;17.41;100.00;101981.09;5234539;28;20029;-75
2023/08/10 01:04:13;;;;;;;6.03;2.30;;;;;;;17.31;100.00;101982.69;5275009;23;20127;-74
2023/08/10 01:07:03;;;;;;;5.57;3.00;;;;;;;17.65;100.00;101996.19;5224862;28;20065;-73
2023/08/10 01:09:51;;;;;;;7.03;3.57;;;;;;;17.27;100.00;102001.47;5212937;28;20480;-74
2023/08/10 01:12:28;;;;;;;6.17;2.93;;;;;;;17.25;100.00;101999.84;5229122;28;20155;-74
2023/08/10 01:15:23;;;;;;;5.03;2.80;;;;;;;17.55;100.00;101996.00;5234067;28;20037;-75
2023/08/10 01:17:57;;;;;;;4.05;2.70;;;;;;;17.36;100.00;101992.03;5225817;28;20026;-74
2023/08/10 01:20:31;;;;;;;5.43;3.07;;;;;;;17.01;100.00;101998.81;5233837;28;20490;-77
2023/08/10 01:23:05;;;;;;;8.30;3.27;;;;;;;17.23;100.00;102002.63;5213510;28;20592;-73
2023/08/10 01:25:37;;;;;;;7.93;2.92;;;;;;;16.89;100.00;101989.91;5215198;28;20368;-74
2023/08/10 01:28:12;;;;;;;8.10;3.40;;;;;;;16.92;100.00;101994.13;5215475;28;20022;-74
2023/08/10 01:30:44;;;;;;;7.57;2.90;;;;;;;17.16;100.00;101996.91;5213926;28;20032;-75
2023/08/10 01:33:15;;;;;;;4.23;3.00;;;;;;;16.87;100.00;101991.81;5217625;28;20057;-73
2023/08/10 01:35:47;;;;;;;6.10;3.00;;;;;;;16.79;100.00;101994.97;5234115;28;20036;-74
2023/08/10 01:38:19;;;;;;;6.37;3.30;;;;;;;16.65;100.00;102003.00;5233347;28;20482;-74
2023/08/10 01:40:51;;;;;;;7.47;3.10;;;;;;;16.54;100.00;102001.94;5235886;28;20029;-74
2023/08/10 01:43:22;;;;;;;10.00;2.70;;;;;;;16.44;100.00;101995.56;5235341;28;20492;-74
2023/08/10 01:45:55;;;;;;;5.03;2.80;;;;;;;16.38;100.00;101993.31;5233999;28;20060;-74
2023/08/10 01:48:32;;;;;;;9.90;3.63;;;;;;;16.61;100.00;102005.00;5234072;28;20026;-74
2023/08/10 01:51:06;;;;;;;8.40;3.00;;;;;;;16.48;100.00;101998.88;5233720;28;20526;-74
2023/08/10 01:53:40;;;;;;;5.77;2.93;;;;;;;16.34;100.00;101997.97;5233543;28;20468;-74
2023/08/10 01:56:11;;;;;;;4.80;3.37;;;;;;;16.72;100.00;101995.50;5235003;28;20029;-74
2023/08/10 01:58:43;;;;;;;6.30;3.40;;;;;;;16.58;100.00;101992.00;5233552;28;20024;-74
2023/08/10 02:01:14;;;;;;;7.33;2.87;;;;;;;16.35;100.00;101997.03;5232375;28;20033;-75
2023/08/10 02:03:45;;;;;;;9.03;3.33;;;;;;;16.13;100.00;102001.06;5233559;28;20145;-76
2023/08/10 02:06:17;;;;;;;5.03;3.20;;;;;;;16.21;100.00;102006.69;5234638;28;20032;-75
2023/08/10 02:08:48;;;;;;;6.90;3.00;;;;;;;16.53;100.00;101999.41;5235190;28;20029;-76
2023/08/10 02:11:20;;;;;;;7.37;3.20;;;;;;;16.71;100.00;102007.03;5217945;28;20030;-76
2023/08/10 02:13:51;;;;;;;8.63;3.20;;;;;;;16.68;100.00;101989.56;5228985;28;20064;-76
2023/08/10 02:16:23;;;;;;;6.60;3.40;;;;;;;16.71;100.00;102005.22;5232979;28;20049;-76
2023/08/10 02:18:54;;;;;;;4.77;2.97;;;;;;;16.32;100.00;102008.63;5230135;28;20025;-75
2023/08/10 02:21:26;;;;;;;7.20;3.17;;;;;;;16.38;100.00;101998.59;5234178;28;20029;-75
2023/08/10 02:23:58;;;;;;;4.03;2.60;;;;;;;16.58;100.00;102010.53;5234808;28;20025;-73
2023/08/10 02:26:29;;;;;;;5.80;3.13;;;;;;;16.40;100.00;102008.16;5234642;28;20087;-73
2023/08/10 02:29:00;;;;;;;4.03;2.97;;;;;;;16.29;100.00;102006.22;5233563;28;20037;-72
2023/08/10 02:31:32;;;;;;;6.60;3.00;;;;;;;16.44;100.00;102009.63;5233816;28;20115;-73
2023/08/10 02:34:03;;;;;;;5.83;2.80;;;;;;;16.49;100.00;102014.63;5228946;28;20017;-73
2023/08/10 02:36:35;;;;;;;4.73;2.97;;;;;;;16.01;100.00;102013.28;5214056;28;20512;-72
2023/08/10 02:39:06;;;;;;;5.70;3.47;;;;;;;16.44;100.00;102006.97;5213823;28;20029;-73
2023/08/10 02:41:37;;;;;;;8.40;3.40;;;;;;;16.13;100.00;102013.47;5214473;28;20105;-73
2023/08/10 02:44:08;;;;;;;6.60;4.00;;;;;;;16.03;100.00;102013.19;5213546;28;20084;-74
2023/08/10 02:46:40;;;;;;;8.87;3.60;;;;;;;16.28;100.00;102014.25;5223311;28;20036;-73
2023/08/10 02:49:12;;;;;;;5.90;3.27;;;;;;;16.23;100.00;102003.13;5234590;28;20067;-73
2023/08/10 02:51:44;;;;;;;6.90;3.57;;;;;;;16.12;100.00;102017.88;5234466;28;20033;-71
2023/08/10 02:54:15;;;;;;;11.03;4.67;;;;;;;16.33;100.00;102015.63;5233153;28;20033;-74
2023/08/10 02:56:46;;;;;;;7.87;3.53;;;;;;;16.29;100.00;102015.91;5216683;28;20079;-73
2023/08/10 02:59:18;;;;;;;5.10;3.40;;;;;;;16.26;100.00;102022.28;5218696;28;20029;-73
2023/08/10 03:01:49;;;;;;;6.97;3.93;;;;;;;15.86;100.00;102017.75;5233655;28;20504;-73
2023/08/10 03:04:20;;;;;;;5.40;3.63;;;;;;;15.77;100.00;102013.88;5233639;28;20049;-73
2023/08/10 03:06:51;;;;;;;5.13;3.90;;;;;;;15.96;100.00;102004.78;5218440;28;20030;-73
2023/08/10 03:09:23;;;;;;;7.77;4.83;;;;;;;15.85;100.00;102016.03;5214077;28;20055;-73
2023/08/10 03:11:54;;;;;;;6.87;4.90;;;;;;;16.11;100.00;102024.09;5213810;28;20080;-73
2023/08/10 03:14:26;;;;;;;7.53;4.23;;;;;;;16.11;100.00;102025.91;5213304;28;20089;-73
2023/08/10 03:16:58;;;;;;;6.37;3.97;;;;;;;16.00;100.00;102029.25;5211957;28;20101;-72
2023/08/10 03:19:29;;;;;;;5.60;3.80;;;;;;;16.09;100.00;102040.06;5213746;28;20121;-73
2023/08/10 03:22:00;;;;;;;6.77;3.73;;;;;;;15.91;100.00;102031.50;5219640;28;20395;-72
2023/08/10 03:24:33;;;;;;;15.97;4.70;;;;;;;15.97;100.00;102035.53;5231370;28;20065;-72
2023/08/10 03:27:04;;;;;;;5.07;3.97;;;;;;;15.55;100.00;102032.88;5222673;28;20473;-73
2023/08/10 03:29:36;;;;;;;9.87;4.63;;;;;;;15.85;100.00;102037.16;5213583;28;20133;-72
2023/08/10 03:32:07;;;;;;;5.30;4.17;;;;;;;15.62;100.00;102028.91;5232064;28;20045;-71
2023/08/10 03:34:38;;;;;;;8.37;3.93;;;;;;;15.58;100.00;102025.63;5234418;28;20029;-70
2023/08/10 03:37:09;;;;;;;8.13;3.83;;;;;;;15.65;100.00;102025.22;5234830;28;20372;-73
2023/08/10 03:39:41;;;;;;;6.33;4.27;;;;;;;15.55;100.00;102020.50;5237775;28;20048;-72
2023/08/10 03:42:12;;;;;;;8.50;4.43;;;;;;;15.42;100.00;102024.84;5235212;28;20025;-73
2023/08/10 03:44:43;;;;;;;6.47;4.20;;;;;;;15.42;100.00;102024.84;5235973;28;20018;-72
2023/08/10 03:47:15;;;;;;;9.07;3.90;;;;;;;15.46;100.00;102029.84;5236553;28;20029;-72
2023/08/10 03:49:46;;;;;;;7.80;4.20;;;;;;;15.31;100.00;102013.19;5237819;28;20839;-72
2023/08/10 03:52:17;;;;;;;6.73;4.87;;;;;;;15.38;100.00;102021.56;5236940;28;20087;-72
2023/08/10 03:54:49;;;;;;;6.80;4.00;;;;;;;15.24;100.00;102031.19;5238028;28;20022;-72
2023/08/10 03:57:20;;;;;;;9.10;4.43;;;;;;;15.30;100.00;102026.47;5242603;28;20391;-71
2023/08/10 03:59:51;;;;;;;6.30;4.50;;;;;;;15.50;100.00;102030.50;5237025;28;20104;-72
2023/08/10 04:02:23;;;;;;;6.57;4.20;;;;;;;15.66;100.00;102011.91;5232787;28;20087;-72
2023/08/10 04:04:54;;;;;;;7.87;4.27;;;;;;;15.48;100.00;102033.25;5236178;28;20049;-73
2023/08/10 04:07:26;;;;;;;4.73;4.00;;;;;;;15.37;100.00;102027.78;5235504;28;20036;-70
2023/08/10 04:09:57;;;;;;;8.07;5.23;;;;;;;15.33;100.00;102031.56;5228600;28;20033;-72
2023/08/10 04:12:28;;;;;;;6.40;4.90;;;;;;;15.36;100.00;102036.63;5231158;28;20480;-71
2023/08/10 04:15:00;;;;;;;6.93;4.67;;;;;;;15.10;100.00;102041.72;5235269;28;20097;-72
2023/08/10 04:17:32;;;;;;;6.90;4.60;;;;;;;15.49;100.00;102039.38;5235880;28;20030;-71
2023/08/10 04:20:10;;;;;;;10.97;4.57;;;;;;;15.60;100.00;102044.00;5235334;28;20029;-69
2023/08/10 04:22:41;;;;;;;6.23;5.07;;;;;;;15.42;100.00;102036.28;5236371;28;20575;-69
2023/08/10 04:25:13;;;;;;;10.27;5.70;;;;;;;15.26;100.00;102035.50;5235645;28;20071;-70
2023/08/10 04:27:44;;;;;;;7.37;4.53;;;;;;;15.33;100.00;102045.59;5236256;28;20132;-69
2023/08/10 04:30:16;;;;;;;6.83;4.80;;;;;;;15.29;100.00;102038.81;5235313;28;20167;-69
2023/08/10 04:32:48;;;;;;;10.23;6.47;;;;;;;15.48;100.00;102049.09;5231016;28;20033;-69
2023/08/10 04:35:19;;;;;;;9.13;6.60;;;;;;;15.52;100.00;102043.59;5235765;28;20554;-69
2023/08/10 04:37:53;;;;;;;10.30;6.43;;;;;;;15.22;100.00;102040.97;5235893;28;20108;-69
2023/08/10 04:40:24;;;;;;;8.63;4.97;;;;;;;15.06;100.00;102045.50;5235508;28;20063;-72
2023/08/10 04:42:58;;;;;;;10.67;6.03;;;;;;;15.31;100.00;102042.22;5235616;28;20503;-71
2023/08/10 04:45:29;;;;;;;9.17;5.40;;;;;;;15.44;100.00;102060.78;5232643;28;20365;-71
2023/08/10 04:48:01;;;;;;;9.47;5.00;;;;;;;15.31;100.00;102054.53;5234819;28;20346;-73
2023/08/10 04:50:32;;;;;;;7.90;5.17;;;;;;;15.12;100.00;102058.31;5233851;28;20037;-74
2023/08/10 04:53:03;;;;;;;9.27;5.03;;;;;;;15.29;100.00;102065.19;5232305;28;20491;-74
2023/08/10 04:55:35;;;;;;;12.20;5.03;;;;;;;15.17;100.00;102058.06;5232720;28;20021;-72
2023/08/10 04:58:06;;;;;;;7.87;5.10;;;;;;;14.95;100.00;102044.34;5235201;28;20030;-75
2023/08/10 05:00:38;;;;;;;7.20;4.97;;;;;;;15.29;100.00;102056.44;5227961;28;20034;-73
2023/08/10 05:03:09;;;;;;;14.47;5.30;;;;;;;15.24;100.00;102064.63;5235590;28;20041;-75
2023/08/10 05:05:40;;;;;;;7.23;5.00;;;;;;;15.38;100.00;102058.50;5234852;28;20041;-74
2023/08/10 05:08:12;;;;;;;11.43;5.30;;;;;;;15.42;100.00;102062.69;5235686;28;20052;-74
2023/08/10 05:10:43;;;;;;;10.90;5.47;;;;;;;15.34;100.00;102060.50;5232414;28;20056;-73
2023/08/10 05:13:15;;;;;;;21.17;6.00;;;;;;;15.27;100.00;102055.69;5214449;28;20033;-70
2023/08/10 05:15:48;;;;;;;7.90;4.97;;;;;;;15.24;100.00;102052.28;5224802;28;20033;-73
2023/08/10 05:18:23;;;;;;;9.23;5.63;;;;;;;15.38;100.00;102058.50;5235869;28;20037;-74
2023/08/10 05:20:59;;;;;;;9.40;5.17;;;;;;;15.38;100.00;102053.22;5235357;28;20044;-73
2023/08/10 05:23:30;;;;;;;8.63;5.00;;;;;;;15.62;100.00;102054.47;5234781;28;20033;-71
2023/08/10 05:26:01;;;;;;;8.70;4.60;;;;;;;15.75;100.00;102062.47;5233857;28;20037;-74
2023/08/10 05:28:33;;;;;;;8.63;5.10;;;;;;;15.79;100.00;102063.97;5222337;28;20061;-74
2023/08/10 05:31:04;;;;;;;7.87;5.17;;;;;;;15.89;100.00;102065.09;5213807;28;20072;-73
2023/08/10 05:33:36;;;;;;;7.60;5.93;;;;;;;15.64;100.00;102068.44;5233960;28;20120;-73
2023/08/10 05:36:07;;;;;;;9.07;5.10;;;;;;;15.94;100.00;102065.66;5235032;28;20108;-74
2023/08/10 05:38:39;;;;;;;12.47;5.90;;;;;;;15.97;100.00;102054.88;5233709;28;20025;-74
2023/08/10 05:41:10;;;;;;;7.47;5.27;;;;;;;16.05;100.00;102062.34;5225465;28;20038;-74
2023/08/10 05:43:41;;;;;;;10.73;5.80;;;;;;;16.06;100.00;102056.13;5218994;28;20025;-74
2023/08/10 05:46:13;;;;;;;8.07;5.50;;;;;;;15.87;100.00;102066.13;5233900;28;20487;-74
2023/08/10 05:48:44;;;;;;;10.67;5.60;;;;;;;16.04;100.00;102052.72;5234564;28;20033;-74
2023/08/10 05:51:15;;;;;;;8.77;6.37;;;;;;;16.09;100.00;102049.81;5233216;28;20179;-73
2023/08/10 05:53:47;;;;;;;9.07;6.47;;;;;;;16.13;100.00;102048.63;5233371;28;20112;-71
2023/08/10 05:56:18;;;;;;;6.20;5.40;;;;;;;16.10;100.00;102051.47;5229750;28;20037;-75
2023/08/10 05:58:49;;;;;;;9.67;5.47;;;;;;;16.23;100.00;102063.91;5234883;28;20658;-75
2023/08/10 06:01:21;;;;;;;9.57;5.67;;;;;;;16.16;100.00;102055.53;5232396;28;20607;-76
2023/08/10 06:03:53;;;;;;;7.33;5.67;;;;;;;16.14;100.00;102053.00;5233669;28;20045;-71
2023/08/10 06:06:24;;;;;;;13.47;6.00;;;;;;;16.29;100.00;102058.22;5233830;28;20025;-74
2023/08/10 06:08:55;;;;;;;10.43;6.20;;;;;;;16.09;100.00;102044.50;5233203;28;20033;-73
2023/08/10 06:11:27;;;;;;;12.27;7.00;;;;;;;16.29;100.00;102055.56;5231179;28;20112;-76
2023/08/10 06:13:59;;;;;;;11.50;6.57;;;;;;;16.40;100.00;102062.81;5232583;28;20040;-73
2023/08/10 06:16:30;;;;;;;9.17;6.20;;;;;;;16.60;100.00;102056.19;5231908;28;20029;-72
2023/08/10 06:19:02;;;;;;;12.60;6.33;;;;;;;16.57;100.00;102043.19;5225074;28;20052;-75
2023/08/10 06:21:34;;;;;;;14.27;6.80;;;;;;;16.68;100.00;102053.91;5224573;28;20680;-73
2023/08/10 06:24:08;;;;;;;9.40;5.47;;;;;;;16.74;100.00;102054.44;5234077;28;20029;-69
2023/08/10 06:26:40;;;;;;;7.87;5.50;;;;;;;16.80;100.00;102060.16;5234213;28;20087;-72
2023/08/10 06:29:11;;;;;;;11.20;6.57;;;;;;;16.75;100.00;102056.13;5227872;28;20026;-73
2023/08/10 06:31:43;;;;;;;11.17;6.00;;;;;;;16.81;100.00;102058.34;5227012;28;20034;-73
2023/08/10 06:34:15;;;;;;;11.40;5.83;;;;;;;16.85;100.00;102062.50;5233183;28;20029;-73
2023/08/10 06:36:46;;;;;;;10.43;6.33;;;;;;;16.76;100.00;102055.16;5209075;28;20083;-73
2023/08/10 06:39:18;;;;;;;9.93;5.87;;;;;;;16.89;100.00;102058.72;5229955;28;20022;-73
2023/08/10 06:41:50;;;;;;;8.83;5.10;;;;;;;16.93;100.00;102049.59;5229665;28;20024;-73
2023/08/10 06:44:21;;;;;;;10.73;5.17;;;;;;;16.92;100.00;102045.25;5233405;28;20479;-73
2023/08/10 06:46:52;;;;;;;10.97;5.97;;;;;;;16.92;100.00;102042.63;5232472;28;20034;-73
2023/08/10 06:49:24;;;;;;;8.70;5.00;;;;;;;16.97;100.00;102052.03;5232119;28;20057;-71
2023/08/10 06:51:55;;;;;;;8.80;4.40;;;;;;;16.98;100.00;102046.66;5226289;28;20026;-72
2023/08/10 06:54:27;;;;;;;7.50;3.90;;;;;;;17.08;100.00;102038.91;5225769;28;20054;-71
2023/08/10 06:57:00;;;;;;;6.67;4.73;;;;;;;17.10;100.00;102044.13;5218973;28;20041;-71
2023/08/10 06:59:32;;;;;;;6.33;3.37;;;;;;;17.17;100.00;102042.75;5229629;28;20371;-71
2023/08/10 07:02:04;;;;;;;4.30;3.00;;;;;;;17.24;100.00;102045.81;5229815;28;20288;-71
2023/08/10 07:04:35;;;;;;;5.47;3.13;;;;;;;17.35;100.00;102037.16;5220839;28;20148;-71
2023/08/10 07:07:07;;;;;;;6.97;3.60;;;;;;;17.32;100.00;102032.91;5225310;28;20052;-72
2023/08/10 07:09:38;;;;;;;6.73;3.10;;;;;;;17.40;100.00;102045.63;5219446;28;20116;-71
2023/08/10 07:12:10;;;;;;;10.07;3.97;;;;;;;17.46;100.00;102044.31;5213844;28;20563;-72
2023/08/10 07:14:41;;;;;;;6.30;3.40;;;;;;;17.51;100.00;102031.59;5222777;28;20048;-71
2023/08/10 07:17:12;;;;;;;5.73;3.27;;;;;;;17.60;100.00;102025.66;5214734;28;20480;-71
2023/08/10 07:19:43;;;;;;;5.90;3.43;;;;;;;17.87;100.00;102031.72;5227274;28;20033;-73
2023/08/10 07:22:15;;;;;;;5.07;2.33;;;;;;;18.04;100.00;102030.50;5229263;28;20036;-72
2023/08/10 07:24:46;;;;;;;4.37;2.00;;;;;;;18.23;100.00;102029.16;5227031;28;20104;-72
2023/08/10 07:27:17;;;;;;;4.10;2.13;;;;;;;18.63;100.00;102033.28;5235680;28;20026;-73
2023/08/10 07:29:49;;;;;;;5.37;1.60;;;;;;;18.94;100.00;102040.72;5227746;28;20041;-73
2023/08/10 07:32:21;;;;;;;3.50;1.50;;;;;;;19.32;96.72;102041.41;5214954;28;20034;-73
2023/08/10 07:34:52;;;;;;;5.57;1.70;;;;;;;19.80;87.93;102048.25;5215279;28;20420;-72
2023/08/10 07:37:24;;;;;;;3.37;1.33;;;;;;;20.18;84.85;102039.94;5234415;28;20041;-72
2023/08/10 07:39:55;;;;;;;5.60;1.70;;;;;;;20.74;78.37;102037.97;5232885;28;20128;-73
2023/08/10 07:42:26;;;;;;;6.37;2.27;;;;;;;21.14;81.15;102036.41;5233108;28;20032;-73
2023/08/10 07:44:58;;;;;;;4.33;2.50;;;;;;;21.82;76.34;102031.44;5233320;28;20029;-73
2023/08/10 07:47:29;;;;;;;4.88;2.17;;;;;;;22.45;69.79;102034.72;5234477;28;20036;-73
2023/08/10 07:50:00;;;;;;;4.07;1.85;;;;;;;23.32;65.93;102046.28;5234580;28;20037;-73
2023/08/10 07:52:32;;;;;;;5.18;1.73;;;;;;;24.29;56.87;102045.03;5234548;28;20033;-73
2023/08/10 07:55:03;;;;;;;3.83;1.42;;;;;;;24.33;50.72;102033.00;5233647;28;20040;-73
2023/08/10 07:57:35;;;;;;;6.18;1.80;;;;;;;25.07;49.89;102045.25;5226885;28;20026;-73
2023/08/10 08:00:07;;;;;;;4.82;1.98;;;;;;;25.32;45.59;102047.19;5214006;28;20156;-73
2023/08/10 08:02:38;;;;;;;2.67;1.20;;;;;;;25.81;44.47;102054.59;5231388;28;20460;-73
2023/08/10 08:05:10;;;;;;;3.63;1.70;;;;;;;26.49;44.40;102052.81;5235859;28;20050;-73
2023/08/10 08:07:44;;;;;;;3.35;1.40;;;;;;;26.81;41.35;102051.91;5234928;28;20381;-73
2023/08/10 08:10:15;;;;;;;4.32;1.23;;;;;;;27.49;41.92;102053.38;5229480;28;20032;-73
2023/08/10 08:12:47;;;;;;;3.17;1.40;;;;;;;27.29;37.49;102047.59;5234472;28;20033;-73
2023/08/10 08:15:19;;;;;;;1.88;0.90;;;;;;;27.96;38.23;102052.63;5232347;28;20017;-74
2023/08/10 08:18:28;;;;;;;3.38;1.17;;;;;;;28.90;38.85;102056.00;5234186;28;20401;-73
2023/08/10 08:21:00;;;;;;;3.40;1.00;;;;;;;28.83;35.39;102052.38;5234978;28;20456;-74
2023/08/10 08:23:31;;;;;;;5.65;1.52;;;;;;;29.11;33.33;102059.84;5225258;28;20033;-73
2023/08/10 08:26:03;;;;;;;2.85;1.10;;;;;;;29.31;34.24;102045.75;5230084;28;20030;-74
2023/08/10 08:28:34;;;;;;;4.60;1.50;;;;;;;29.47;33.12;102045.53;5226829;28;20029;-73
2023/08/10 08:31:06;;;;;;;5.75;1.55;;;;;;;30.06;32.85;102058.19;5232368;28;20185;-73
2023/08/10 08:33:39;;;;;;;2.38;0.90;;;;;;;30.06;31.36;102059.03;5234577;28;20465;-74
2023/08/10 08:36:10;;;;;;;3.45;1.35;;;;;;;30.47;31.96;102063.94;5232305;28;20065;-74
2023/08/10 08:38:41;;;;;;;2.63;1.15;;;;;;;30.91;31.74;102061.97;5227775;28;20034;-74
2023/08/10 08:41:17;;;;;;;6.65;1.60;;;;;;;31.22;29.47;102057.97;5230915;28;20498;-75
2023/08/10 08:43:50;;;;;;;8.55;2.15;;;;;;;30.53;30.40;102052.34;5233653;28;20033;-75
2023/08/10 08:46:27;;;;;;;7.57;1.48;;;;;;;30.78;30.82;102062.69;5224498;28;20476;-74
2023/08/10 08:49:02;;;;;;;3.38;1.30;;;;;;;31.71;30.22;102059.78;5214552;28;20030;-74
2023/08/10 08:51:34;;;;;;;3.85;1.25;;;;;;;31.58;30.32;102056.00;5214200;28;20655;-75
2023/08/10 08:54:05;;;;;;;2.83;1.15;;;;;;;32.09;28.82;102056.53;5212213;28;20033;-74
2023/08/10 08:56:37;;;;;;;4.18;1.15;;;;;;;32.20;28.52;102060.50;5213200;28;20483;-75
2023/08/10 08:59:08;;;;;;;2.95;1.02;;;;;;;32.42;28.34;102073.81;5213226;28;20496;-74
2023/08/10 09:01:40;;;;;;;2.05;1.00;;;;;;;31.99;27.17;102066.94;5211997;28;20041;-74
2023/08/10 09:04:11;;;;;;;2.65;1.23;;;;;;;31.18;28.81;102058.53;5213900;28;20065;-74
2023/08/10 09:06:45;;;;;;;2.17;1.10;;;;;;;30.84;30.17;102055.69;5212704;28;20022;-74
2023/08/10 09:09:17;;;;;;;3.63;1.02;;;;;;;30.78;29.53;102035.66;5213687;28;20034;-74
2023/08/10 09:11:48;;;;;;;3.05;1.17;;;;;;;30.47;30.58;102045.03;5212038;28;20026;-74
2023/08/10 09:14:19;;;;;;;3.40;1.30;;;;;;;30.47;30.66;102042.34;5212519;28;20750;-74
2023/08/10 09:16:51;;;;;;;4.78;1.33;;;;;;;29.81;31.51;102026.19;5214286;28;20033;-74
2023/08/10 09:19:22;;;;;;;1.35;0.90;;;;;;;29.30;32.69;102041.38;5214067;28;20053;-75
2023/08/10 09:21:53;;;;;;;4.10;1.30;;;;;;;29.10;31.60;102025.78;5213663;28;20522;-74
2023/08/10 09:24:28;;;;;;;3.70;0.98;;;;;;;29.33;33.52;102035.59;5211924;28;20121;-74
2023/08/10 09:27:02;;;;;;;16.90;2.28;;;;;;;29.24;33.57;102042.97;5212431;28;20364;-74
2023/08/10 09:29:33;;;;;;;;;;;;;;;30.70;33.52;102038.53;5211912;28;20060;-74
2023/08/10 09:32:05;;;;;;;6.93;1.42;;;;;;;29.45;32.60;102039.50;5213278;28;19956;-74
2023/08/10 09:34:36;;;;;;;2.20;1.20;;;;;;;29.78;33.27;102037.34;5212934;28;20664;-74
2023/08/10 09:37:07;;;;;;;2.15;1.02;;;;;;;29.59;31.91;102039.63;5212208;28;20113;-74
2023/08/10 09:39:39;;;;;;;3.30;1.23;;;;;;;29.43;33.34;102036.13;5213304;28;20029;-73
2023/08/10 09:42:10;;;;;;;11.02;1.52;;;;;;;29.41;32.82;102024.69;5229433;28;20057;-73
2023/08/10 09:44:47;;;;;;;4.10;1.10;;;;;;;29.70;34.61;102036.47;5232049;28;20025;-71
2023/08/10 09:47:19;;;;;;;4.57;1.20;;;;;;;29.13;34.74;102032.69;5232675;28;20098;-72
2023/08/10 09:49:56;;;;;;;5.50;1.70;;;;;;;29.62;36.11;102038.47;5233676;28;20034;-73
2023/08/10 09:52:28;;;;;;;3.97;1.48;;;;;;;29.92;32.70;102044.56;5233556;28;20033;-73
2023/08/10 09:54:59;;;;;;;3.08;1.50;;;;;;;30.08;32.99;102034.53;5233383;28;20423;-72
2023/08/10 09:57:31;;;;;;;3.97;1.20;;;;;;;29.97;35.44;102029.66;5232304;28;20024;-71
2023/08/10 10:00:04;;;;;;;4.78;1.38;;;;;;;30.22;32.28;102029.25;5232437;28;20041;-71
2023/08/10 10:02:35;;;;;;;4.10;1.53;;;;;;;29.91;33.01;102037.50;5212579;28;20144;-71
2023/08/10 10:05:07;;;;;;;4.50;1.63;;;;;;;29.82;33.49;102033.25;5212508;28;20376;-71
2023/08/10 10:07:41;;;;;;;6.00;1.58;;;;;;;29.70;33.73;102041.88;5212747;28;20420;-71
2023/08/10 10:10:15;;;;;;;3.75;1.38;;;;;;;29.59;33.94;102036.94;5213028;28;20026;-71
2023/08/10 10:12:49;;;;;;;5.55;2.85;;;;;;;29.61;33.92;102032.22;5213466;28;20128;-73
2023/08/10 10:15:22;;;;;;;3.33;1.95;;;;;;;29.04;34.06;102037.34;5211191;28;20037;-72
2023/08/10 10:17:54;;;;;;;4.50;1.60;;;;;;;28.56;37.43;102041.19;5212795;28;20033;-72
2023/08/10 10:20:26;;;;;;;2.58;1.38;;;;;;;28.98;35.64;102044.28;5211575;28;20030;-73
2023/08/10 10:22:57;;;;;;;5.90;1.15;;;;;;;28.99;36.06;102052.19;5212906;28;20033;-73
2023/08/10 10:25:29;;;;;;;2.70;1.48;;;;;;;28.71;35.45;102050.13;5212179;28;20534;-72
2023/08/10 10:28:13;;;;;;;4.05;1.80;;;;;;;28.90;36.19;102047.91;5220496;28;20033;-74
2023/08/10 10:30:56;;;;;;;4.30;1.58;;;;;;;28.60;37.44;102055.97;5232453;28;20097;-73
2023/08/10 10:33:28;;;;;;;4.87;1.30;;;;;;;28.33;37.25;102052.84;5232824;28;20029;-73
2023/08/10 10:36:11;;;;;;;2.85;1.30;;;;;;;28.77;37.02;102045.00;5232620;28;20318;-73
2023/08/10 10:38:47;;;;;;;3.55;1.50;;;;;;;27.89;39.89;102036.34;5232887;28;20022;-73
2023/08/10 10:41:32;;;;;;;7.93;2.70;;;;;;;28.75;38.55;102040.66;5232299;28;20071;-72
2023/08/10 10:44:05;;;;;;;2.63;1.67;;;;;;;27.91;37.14;102034.28;5231627;28;20028;-73
2023/08/10 10:46:38;;;;;;;4.30;1.20;;;;;;;28.02;39.33;102033.91;5232458;28;20036;-73
2023/08/10 10:49:18;;;;;;;3.92;1.50;;;;;;;28.10;38.47;102037.53;5235519;28;20073;-73
2023/08/10 10:51:54;;;;;;;2.67;1.60;;;;;;;28.30;39.13;102039.72;5236644;28;20030;-72
2023/08/10 10:54:27;;;;;;;3.08;1.50;;;;;;;28.94;37.18;102033.03;5236321;28;20392;-73
2023/08/10 10:57:00;;;;;;;3.95;1.20;;;;;;;28.96;38.59;102024.75;5236602;28;20025;-73
2023/08/10 10:59:32;;;;;;;12.30;2.28;;;;;;;29.82;37.12;102019.75;5234325;28;20121;-73
2023/08/10 11:02:04;;;;;;;2.85;1.42;;;;;;;30.19;35.35;102007.00;5236453;28;20105;-73
2023/08/10 11:04:38;;;;;;;3.33;1.30;;;;;;;29.54;36.55;102025.88;5235163;28;20144;-73
2023/08/10 11:07:09;;;;;;;4.90;1.60;;;;;;;30.73;34.15;102022.75;5230389;28;20398;-73
2023/08/10 11:09:40;;;;;;;4.53;1.65;;;;;;;29.77;35.79;102027.59;5231971;28;20026;-72
2023/08/10 11:12:12;;;;;;;4.13;1.60;;;;;;;30.46;34.63;102029.88;5236829;28;20072;-72
2023/08/10 11:14:43;;;;;;;3.75;1.70;;;;;;;29.79;36.43;102021.00;5237393;28;20029;-72
2023/08/10 11:17:15;;;;;;;4.25;1.80;;;;;;;29.35;34.90;102011.97;5237332;28;20026;-72
2023/08/10 11:19:47;;;;;;;4.93;1.73;;;;;;;29.74;35.28;102015.34;5238394;28;20049;-72
2023/08/10 11:22:18;;;;;;;4.35;1.80;;;;;;;29.23;36.44;102019.72;5238621;28;20052;-72
2023/08/10 11:24:49;;;;;;;3.67;1.52;;;;;;;29.14;39.56;102015.47;5238680;28;20728;-72
2023/08/10 11:27:21;;;;;;;5.78;1.83;;;;;;;29.16;36.53;102013.41;5238496;28;20037;-72
2023/08/10 11:29:54;;;;;;;4.25;1.38;;;;;;;29.29;36.68;102007.34;5236353;28;20033;-72
2023/08/10 11:32:25;;;;;;;5.50;1.77;;;;;;;29.23;36.14;102009.78;5231280;28;20021;-72
2023/08/10 11:34:59;;;;;;;2.67;1.30;;;;;;;29.77;37.69;102003.28;5236140;28;20040;-69
2023/08/10 11:37:34;;;;;;;2.97;1.30;;;;;;;30.06;35.89;102002.31;5234152;28;20176;-72
2023/08/10 11:40:15;;;;;;;5.70;1.58;;;;;;;29.63;38.19;102003.19;5235449;28;20040;-71
2023/08/10 11:42:49;;;;;;;4.25;1.50;;;;;;;30.01;37.16;102002.06;5219997;28;20025;-74